Time;durP1;ratioP1;P1;durP2;ratioP2;P2;SDS_P1;SDS_P2;PMS_P1;PMS_P2;Temp;Humidity;BMP_temperature;BMP_pressure;BME280_temperature;BME280_humidity;BME280_pressure;Samples;Min_cycle;Max_cycle;Signal;HPM_P1;HPM_P2
2021/06/09 00:01:04;;;;;;;8.68;6.55;;;10.40;99.90;;;;;;4989407;28;20085;-79
2021/06/09 00:03:30;;;;;;;15.80;7.53;;;10.40;99.90;;;;;;4974212;28;20038;-78
2021/06/09 00:05:56;;;;;;;8.95;7.45;;;10.30;99.90;;;;;;4989204;28;20178;-79
2021/06/09 00:08:21;;;;;;;10.63;8.27;;;10.30;99.90;;;;;;4973190;28;20508;-79
2021/06/09 00:10:50;;;;;;;8.88;7.00;;;10.30;99.90;;;;;;4973136;28;20023;-79
2021/06/09 00:13:17;;;;;;;10.05;7.13;;;10.20;99.90;;;;;;4989054;28;20490;-79
2021/06/09 00:15:43;;;;;;;9.57;6.88;;;10.20;99.90;;;;;;4972858;28;20034;-79
2021/06/09 00:18:09;;;;;;;9.98;7.65;;;10.10;99.90;;;;;;4973494;28;20510;-78
2021/06/09 00:20:34;;;;;;;11.05;7.60;;;10.10;99.90;;;;;;4973999;28;20436;-79
2021/06/09 00:23:00;;;;;;;13.18;8.50;;;10.10;99.90;;;;;;4973873;28;20041;-79
2021/06/09 00:25:26;;;;;;;9.88;6.25;;;10.00;99.90;;;;;;4973866;28;20022;-79
2021/06/09 00:27:56;;;;;;;13.43;7.38;;;10.00;99.90;;;;;;4988979;28;20023;-79
2021/06/09 00:30:29;;;;;;;10.30;7.45;;;10.00;99.90;;;;;;4974083;28;20023;-79
2021/06/09 00:32:56;;;;;;;9.40;7.25;;;10.10;99.90;;;;;;4973688;28;20031;-79
2021/06/09 00:35:22;;;;;;;8.95;7.45;;;10.00;99.90;;;;;;4973530;28;20069;-78
2021/06/09 00:37:47;;;;;;;10.02;7.85;;;9.90;99.90;;;;;;4973974;28;20058;-79
2021/06/09 00:40:13;;;;;;;11.43;8.32;;;9.90;99.90;;;;;;4988874;28;20487;-79
2021/06/09 00:42:39;;;;;;;11.13;7.78;;;9.90;99.90;;;;;;4973524;28;20023;-79
2021/06/09 00:45:07;;;;;;;13.73;8.20;;;9.80;99.90;;;;;;4973650;28;20023;-79
2021/06/09 00:47:33;;;;;;;10.75;8.13;;;9.80;99.90;;;;;;4988151;28;20558;-78
2021/06/09 00:49:58;;;;;;;11.35;7.88;;;9.90;99.90;;;;;;4973653;28;20062;-79
2021/06/09 00:52:25;;;;;;;13.68;8.07;;;9.90;99.90;;;;;;4972394;28;20027;-79
2021/06/09 00:54:52;;;;;;;13.30;9.18;;;9.90;99.90;;;;;;4968740;28;20118;-79
2021/06/09 00:57:18;;;;;;;12.90;9.07;;;9.90;99.90;;;;;;4954293;28;20042;-79
2021/06/09 00:59:45;;;;;;;10.93;8.80;;;9.90;99.90;;;;;;4954127;28;20031;-79
2021/06/09 01:02:11;;;;;;;11.10;9.52;;;9.90;99.90;;;;;;4969913;28;20395;-79
2021/06/09 01:04:36;;;;;;;12.15;9.40;;;9.80;99.90;;;;;;4988194;28;20023;-78
2021/06/09 01:07:03;;;;;;;12.48;8.27;;;9.80;99.90;;;;;;4988268;28;20487;-78
2021/06/09 01:09:29;;;;;;;12.73;8.43;;;9.80;99.90;;;;;;4972136;28;20033;-78
2021/06/09 01:11:56;;;;;;;11.95;8.90;;;9.70;99.90;;;;;;4973219;28;20031;-78
2021/06/09 01:14:22;;;;;;;10.00;8.43;;;9.70;99.90;;;;;;4987815;28;20037;-79
2021/06/09 01:16:50;;;;;;;14.70;8.95;;;9.60;99.90;;;;;;4988151;28;20037;-79
2021/06/09 01:19:18;;;;;;;12.13;9.88;;;9.60;99.90;;;;;;4972880;28;20023;-79
2021/06/09 01:21:44;;;;;;;18.70;11.05;;;9.60;99.90;;;;;;4988118;28;20027;-78
2021/06/09 01:24:10;;;;;;;16.40;10.85;;;9.60;99.90;;;;;;4972797;28;20066;-79
2021/06/09 01:26:38;;;;;;;26.02;18.45;;;9.60;99.90;;;;;;4988088;28;20061;-78
2021/06/09 01:29:05;;;;;;;16.73;13.30;;;9.70;99.90;;;;;;4972352;28;20022;-79
2021/06/09 01:31:32;;;;;;;23.95;13.38;;;9.80;99.90;;;;;;4973014;28;20055;-79
2021/06/09 01:34:04;;;;;;;15.20;12.55;;;9.70;99.90;;;;;;4972479;28;20034;-78
2021/06/09 01:36:31;;;;;;;19.00;14.05;;;9.60;99.90;;;;;;4987775;28;20475;-78
2021/06/09 01:38:57;;;;;;;17.25;13.38;;;9.50;99.90;;;;;;4973020;28;20042;-78
2021/06/09 01:41:23;;;;;;;20.63;13.77;;;9.50;99.90;;;;;;4973066;28;20026;-79
2021/06/09 01:43:52;;;;;;;16.33;12.13;;;9.50;99.90;;;;;;4972456;28;20061;-78
2021/06/09 01:46:18;;;;;;;18.55;13.25;;;9.50;99.90;;;;;;4973001;28;20027;-78
2021/06/09 01:48:43;;;;;;;16.08;12.45;;;9.50;99.90;;;;;;4972683;28;20113;-78
2021/06/09 01:51:09;;;;;;;17.88;13.63;;;9.50;99.90;;;;;;4973082;28;20101;-78
2021/06/09 01:53:35;;;;;;;18.42;13.13;;;9.40;99.90;;;;;;4971690;28;20027;-78
2021/06/09 01:56:01;;;;;;;16.50;13.15;;;9.30;99.90;;;;;;4972472;28;20027;-78
2021/06/09 01:58:26;;;;;;;16.88;13.43;;;9.40;99.90;;;;;;4972804;28;20436;-78
2021/06/09 02:00:53;;;;;;;19.88;14.60;;;9.30;99.90;;;;;;4972963;28;20058;-79
2021/06/09 02:03:19;;;;;;;18.50;14.07;;;9.30;99.90;;;;;;4972352;28;20499;-79
2021/06/09 02:05:45;;;;;;;19.60;13.10;;;9.30;99.90;;;;;;4987657;28;20031;-78
2021/06/09 02:08:13;;;;;;;20.10;14.45;;;9.30;99.90;;;;;;4972727;28;20023;-78
2021/06/09 02:10:40;;;;;;;16.35;12.40;;;9.30;99.90;;;;;;4972198;28;20387;-78
2021/06/09 02:13:12;;;;;;;20.10;15.07;;;9.20;99.90;;;;;;4986267;28;20035;-79
2021/06/09 02:15:38;;;;;;;23.90;15.02;;;9.20;99.90;;;;;;4972511;28;20031;-79
2021/06/09 02:18:10;;;;;;;25.35;13.93;;;9.20;99.90;;;;;;4987247;28;20104;-78
2021/06/09 02:20:38;;;;;;;17.27;13.20;;;9.20;99.90;;;;;;4987711;28;20403;-78
2021/06/09 02:23:07;;;;;;;19.17;13.35;;;9.20;99.90;;;;;;4967955;28;20044;-78
2021/06/09 02:25:33;;;;;;;21.55;14.45;;;9.20;99.90;;;;;;4953091;28;20023;-78
2021/06/09 02:27:58;;;;;;;19.83;14.27;;;9.20;99.90;;;;;;4953250;28;20023;-78
2021/06/09 02:30:24;;;;;;;17.30;12.30;;;9.10;99.90;;;;;;4953324;28;20028;-78
2021/06/09 02:32:50;;;;;;;17.52;12.35;;;9.10;99.90;;;;;;4974224;28;20023;-78
2021/06/09 02:35:19;;;;;;;14.13;11.50;;;9.00;99.90;;;;;;4972409;28;20083;-79
2021/06/09 02:37:50;;;;;;;16.02;11.55;;;8.90;99.90;;;;;;4987364;28;20041;-78
2021/06/09 02:40:16;;;;;;;14.95;12.00;;;8.80;99.90;;;;;;4972795;28;20514;-78
2021/06/09 02:42:42;;;;;;;11.98;9.13;;;8.80;99.90;;;;;;4975776;28;20027;-78
2021/06/09 02:45:18;;;;;;;10.32;8.70;;;8.70;99.90;;;;;;4975454;28;20114;-78
2021/06/09 02:47:48;;;;;;;11.88;9.35;;;8.70;99.90;;;;;;4971082;28;20027;-78
2021/06/09 02:50:17;;;;;;;14.13;10.18;;;8.60;99.90;;;;;;4971493;28;20077;-79
2021/06/09 02:53:06;;;;;;;14.68;11.38;;;8.60;99.90;;;;;;4971223;28;20046;-78
2021/06/09 02:55:43;;;;;;;14.05;10.45;;;8.60;99.90;;;;;;4975620;28;20026;-79
2021/06/09 02:58:38;;;;;;;11.40;9.43;;;8.60;99.90;;;;;;4975619;28;20031;-78
2021/06/09 03:01:28;;;;;;;12.80;9.10;;;8.60;99.90;;;;;;4990630;28;20031;-78
2021/06/09 03:04:35;;;;;;;15.48;10.75;;;8.50;99.90;;;;;;4990126;28;20499;-78
2021/06/09 03:07:28;;;;;;;12.82;9.52;;;8.50;99.90;;;;;;4964958;28;20054;-78
2021/06/09 03:10:08;;;;;;;14.13;10.35;;;8.50;99.90;;;;;;4975514;28;20045;-78
2021/06/09 03:13:01;;;;;;;13.77;10.45;;;8.50;99.90;;;;;;4975235;28;20034;-78
2021/06/09 03:16:09;;;;;;;18.23;11.60;;;8.50;99.90;;;;;;4975004;28;20027;-78
2021/06/09 03:18:45;;;;;;;12.85;10.52;;;8.50;99.90;;;;;;4972681;28;20073;-78
2021/06/09 03:21:23;;;;;;;18.15;11.77;;;8.50;99.90;;;;;;4975297;28;20030;-78
2021/06/09 03:24:19;;;;;;;15.65;11.73;;;8.50;99.90;;;;;;4974782;28;20037;-78
2021/06/09 03:26:51;;;;;;;18.85;13.05;;;8.60;99.90;;;;;;4974071;28;20054;-78
2021/06/09 03:29:38;;;;;;;19.38;13.52;;;8.60;99.90;;;;;;4975239;28;20468;-78
2021/06/09 03:32:11;;;;;;;17.38;12.95;;;8.60;99.90;;;;;;4975046;28;20062;-78
2021/06/09 03:34:57;;;;;;;20.80;15.17;;;8.70;99.90;;;;;;4974729;28;20034;-78
2021/06/09 03:37:24;;;;;;;19.30;13.82;;;8.70;99.90;;;;;;4973694;28;20046;-78
2021/06/09 03:39:57;;;;;;;24.67;12.77;;;8.70;99.90;;;;;;4989601;28;20086;-78
2021/06/09 03:42:25;;;;;;;21.35;13.75;;;8.80;99.90;;;;;;4973718;28;20383;-78
2021/06/09 03:44:53;;;;;;;18.75;13.85;;;8.90;99.90;;;;;;4973333;28;20029;-78
2021/06/09 03:47:20;;;;;;;19.38;13.93;;;8.90;99.90;;;;;;4989432;28;20027;-78
2021/06/09 03:49:47;;;;;;;19.95;12.40;;;8.90;99.90;;;;;;4973534;28;20023;-78
2021/06/09 03:52:14;;;;;;;18.20;11.80;;;9.00;99.90;;;;;;4989016;28;20045;-78
2021/06/09 03:54:42;;;;;;;18.17;12.43;;;9.00;99.90;;;;;;4974502;28;20030;-78
2021/06/09 03:57:08;;;;;;;16.95;12.10;;;9.00;99.90;;;;;;4974466;28;20035;-78
2021/06/09 03:59:35;;;;;;;18.30;13.05;;;9.10;99.90;;;;;;4974258;28;20089;-78
2021/06/09 04:02:07;;;;;;;15.82;12.20;;;9.20;99.90;;;;;;4974403;28;20030;-78
2021/06/09 04:04:34;;;;;;;17.65;12.20;;;9.20;99.90;;;;;;4953788;28;20113;-78
2021/06/09 04:07:02;;;;;;;17.25;13.05;;;9.30;99.90;;;;;;4955118;28;20030;-78
2021/06/09 04:09:29;;;;;;;18.00;13.38;;;9.30;99.90;;;;;;4968703;28;20027;-78
2021/06/09 04:12:00;;;;;;;18.00;12.82;;;9.40;99.90;;;;;;4974419;28;20061;-78
2021/06/09 04:14:46;;;;;;;19.20;13.57;;;9.50;99.90;;;;;;4989168;28;20027;-78
2021/06/09 04:17:17;;;;;;;20.90;15.93;;;9.60;99.90;;;;;;4972720;28;20038;-78
2021/06/09 04:19:45;;;;;;;21.55;15.65;;;9.70;99.90;;;;;;4974342;28;20041;-78
2021/06/09 04:22:11;;;;;;;21.85;16.48;;;9.80;99.90;;;;;;4972851;28;20478;-78
2021/06/09 04:24:39;;;;;;;22.70;16.70;;;9.90;99.90;;;;;;4974022;28;20027;-79
2021/06/09 04:27:08;;;;;;;25.83;16.85;;;10.00;99.90;;;;;;4972807;28;20074;-78
2021/06/09 04:29:34;;;;;;;21.05;15.82;;;10.10;99.90;;;;;;4988578;28;20507;-79
2021/06/09 04:32:00;;;;;;;22.77;15.50;;;10.10;99.90;;;;;;4974030;28;20403;-78
2021/06/09 04:34:25;;;;;;;22.08;16.05;;;10.20;99.90;;;;;;4973468;28;20031;-78
2021/06/09 04:36:52;;;;;;;20.95;16.58;;;10.20;99.90;;;;;;4988878;28;20038;-78
2021/06/09 04:39:18;;;;;;;23.15;18.10;;;10.20;99.90;;;;;;4973672;28;20058;-78
2021/06/09 04:41:45;;;;;;;29.15;19.80;;;10.30;99.90;;;;;;4988732;28;20507;-79
2021/06/09 04:44:14;;;;;;;30.92;18.40;;;10.40;99.90;;;;;;4973585;28;20026;-78
2021/06/09 04:46:40;;;;;;;27.10;19.00;;;10.60;99.90;;;;;;4973698;28;20019;-78
2021/06/09 04:49:07;;;;;;;25.55;19.08;;;10.80;99.90;;;;;;4973343;28;20054;-78
2021/06/09 04:51:37;;;;;;;32.05;21.27;;;10.90;99.90;;;;;;4973424;28;20035;-78
2021/06/09 04:54:07;;;;;;;31.30;21.33;;;11.10;99.90;;;;;;4973407;28;20042;-78
2021/06/09 04:56:35;;;;;;;34.55;24.15;;;11.30;99.90;;;;;;4973666;28;20383;-78
2021/06/09 04:59:06;;;;;;;36.05;25.52;;;11.50;99.90;;;;;;4973096;28;20073;-78
2021/06/09 05:01:31;;;;;;;40.53;30.90;;;11.60;99.90;;;;;;4973562;28;20106;-78
2021/06/09 05:03:57;;;;;;;42.25;32.60;;;11.80;99.90;;;;;;4968322;28;20119;-78
2021/06/09 05:06:23;;;;;;;40.85;30.77;;;12.00;99.90;;;;;;4954257;28;20106;-79
2021/06/09 05:08:50;;;;;;;36.70;26.90;;;12.10;99.90;;;;;;4962314;28;20132;-78
2021/06/09 05:11:21;;;;;;;35.45;26.55;;;12.30;99.90;;;;;;4972189;28;20116;-78
2021/06/09 05:13:49;;;;;;;40.10;30.80;;;12.50;99.90;;;;;;4971790;28;20522;-78
2021/06/09 05:16:16;;;;;;;35.60;29.02;;;12.60;99.90;;;;;;4988201;28;20070;-78
2021/06/09 05:18:45;;;;;;;37.72;29.08;;;12.80;99.90;;;;;;4973001;28;20034;-78
2021/06/09 05:21:11;;;;;;;33.83;24.88;;;13.00;99.90;;;;;;4973272;28;20447;-78
2021/06/09 05:23:43;;;;;;;47.92;37.38;;;13.20;99.90;;;;;;4973242;28;20030;-78
2021/06/09 05:26:11;;;;;;;40.80;31.67;;;13.40;99.90;;;;;;4973229;28;20369;-78
2021/06/09 05:28:47;;;;;;;28.30;21.23;;;13.60;99.90;;;;;;4972862;28;20128;-78
2021/06/09 05:31:13;;;;;;;24.63;19.30;;;13.80;99.90;;;;;;4973242;28;20424;-78
2021/06/09 05:33:42;;;;;;;28.00;21.85;;;14.00;99.90;;;;;;4972725;28;20058;-79
2021/06/09 05:36:08;;;;;;;28.77;22.15;;;14.20;99.90;;;;;;4973019;28;20105;-78
2021/06/09 05:38:34;;;;;;;28.95;25.45;;;14.40;99.90;;;;;;4972904;28;20030;-78
2021/06/09 05:41:00;;;;;;;21.17;14.43;;;14.60;99.90;;;;;;4987864;28;20122;-78
2021/06/09 05:43:28;;;;;;;15.98;13.10;;;14.60;99.90;;;;;;4972804;28;20030;-78
2021/06/09 05:45:53;;;;;;;14.73;12.55;;;14.80;99.90;;;;;;4972857;28;20031;-78
2021/06/09 05:48:19;;;;;;;13.88;10.95;;;15.00;99.90;;;;;;4972672;28;20022;-78
2021/06/09 05:50:54;;;;;;;14.27;11.30;;;15.10;99.90;;;;;;4973010;28;20030;-78
2021/06/09 05:53:22;;;;;;;14.00;12.35;;;15.30;99.90;;;;;;4972972;28;20037;-78
2021/06/09 05:55:48;;;;;;;13.90;11.65;;;15.70;99.90;;;;;;4972689;28;20023;-78
2021/06/09 05:58:18;;;;;;;14.73;12.38;;;15.80;99.90;;;;;;4968155;28;20039;-78
2021/06/09 06:00:49;;;;;;;13.80;11.85;;;16.00;99.90;;;;;;4969107;28;20114;-79
2021/06/09 06:03:15;;;;;;;14.68;11.13;;;16.30;99.90;;;;;;4962153;28;20035;-78
2021/06/09 06:05:43;;;;;;;11.80;9.13;;;16.40;99.90;;;;;;4951918;29;20534;-78
2021/06/09 06:08:08;;;;;;;9.48;8.57;;;16.60;99.90;;;;;;4956422;28;20085;-78
2021/06/09 06:10:34;;;;;;;10.82;8.73;;;16.80;99.90;;;;;;4972478;28;20031;-78
2021/06/09 06:13:00;;;;;;;15.18;7.70;;;17.00;99.90;;;;;;4971341;28;20058;-78
2021/06/09 06:15:26;;;;;;;10.82;7.80;;;17.40;99.90;;;;;;4987986;28;20030;-78
2021/06/09 06:17:52;;;;;;;10.25;7.43;;;17.20;99.90;;;;;;4990978;28;20058;-78
2021/06/09 06:20:20;;;;;;;8.93;7.57;;;17.40;99.90;;;;;;4976336;28;20031;-78
2021/06/09 06:22:48;;;;;;;8.13;6.45;;;17.60;99.90;;;;;;4991542;28;20031;-78
2021/06/09 06:25:17;;;;;;;7.28;5.63;;;17.90;99.90;;;;;;4975869;28;20022;-78
2021/06/09 06:27:45;;;;;;;5.45;4.50;;;18.00;99.90;;;;;;4991012;28;20031;-78
2021/06/09 06:30:11;;;;;;;5.88;2.58;;;18.10;99.90;;;;;;4976242;28;20046;-78
2021/06/09 06:32:38;;;;;;;4.57;3.35;;;18.20;99.90;;;;;;4990690;28;20076;-78
2021/06/09 06:35:05;;;;;;;6.03;4.50;;;18.20;99.90;;;;;;4991098;28;20027;-79
2021/06/09 06:37:31;;;;;;;10.23;4.28;;;18.30;99.90;;;;;;4990757;28;20045;-78
2021/06/09 06:39:57;;;;;;;5.63;4.10;;;18.60;99.90;;;;;;4975801;28;20483;-78
2021/06/09 06:42:23;;;;;;;6.70;4.20;;;18.70;99.90;;;;;;4975951;28;20041;-78
2021/06/09 06:44:49;;;;;;;6.00;3.90;;;18.80;99.90;;;;;;4975675;28;20077;-78
2021/06/09 06:47:18;;;;;;;4.85;3.72;;;18.80;99.90;;;;;;4975482;28;20488;-78
2021/06/09 06:49:44;;;;;;;7.43;4.32;;;19.00;99.90;;;;;;4991153;28;20030;-78
2021/06/09 06:52:10;;;;;;;5.25;3.90;;;19.10;99.90;;;;;;4965061;28;20034;-80
2021/06/09 06:54:36;;;;;;;7.30;3.67;;;19.30;99.90;;;;;;4971629;28;20031;-79
2021/06/09 06:57:03;;;;;;;4.57;3.35;;;19.50;99.90;;;;;;4967232;28;20023;-79
2021/06/09 06:59:29;;;;;;;3.70;3.38;;;19.50;99.90;;;;;;4971489;28;20042;-80
2021/06/09 07:01:56;;;;;;;6.35;4.35;;;19.50;99.90;;;;;;4970083;28;20023;-80
2021/06/09 07:04:23;;;;;;;3.92;3.42;;;19.70;99.90;;;;;;4969642;28;20173;-80
2021/06/09 07:06:50;;;;;;;4.70;3.92;;;19.80;99.90;;;;;;4971109;28;20073;-80
2021/06/09 07:09:21;;;;;;;4.00;3.17;;;19.60;99.90;;;;;;4969648;28;20416;-79
2021/06/09 07:11:49;;;;;;;6.65;3.53;;;19.80;99.90;;;;;;4970232;28;20027;-79
2021/06/09 07:14:15;;;;;;;4.72;3.70;;;20.10;99.90;;;;;;4970744;28;20086;-79
2021/06/09 07:16:43;;;;;;;4.70;4.20;;;20.00;99.90;;;;;;4970026;28;20047;-79
2021/06/09 07:19:10;;;;;;;4.03;3.47;;;20.30;99.90;;;;;;4971377;28;20471;-79
2021/06/09 07:21:38;;;;;;;5.88;3.47;;;20.50;99.90;;;;;;4971417;28;20519;-79
2021/06/09 07:24:05;;;;;;;4.75;3.70;;;20.80;99.90;;;;;;4970988;28;20435;-80
2021/06/09 07:26:36;;;;;;;5.03;3.40;;;21.00;99.90;;;;;;4970798;28;20073;-79
2021/06/09 07:29:02;;;;;;;6.40;3.10;;;21.10;99.90;;;;;;4970864;28;20031;-79
2021/06/09 07:31:34;;;;;;;5.45;2.92;;;21.00;99.90;;;;;;4971214;28;20109;-79
2021/06/09 07:34:00;;;;;;;6.05;3.28;;;21.00;99.90;;;;;;4970927;28;20521;-79
2021/06/09 07:36:36;;;;;;;6.90;3.95;;;21.20;99.90;;;;;;4971035;28;20043;-79
2021/06/09 07:39:08;;;;;;;4.13;3.17;;;21.30;99.90;;;;;;4967174;28;20038;-78
2021/06/09 07:41:36;;;;;;;1.40;0.93;;;21.20;99.90;;;;;;4973625;28;20051;-78
2021/06/09 07:44:05;;;;;;;2.55;1.27;;;21.20;99.90;;;;;;4974666;28;20026;-77
2021/06/09 07:46:33;;;;;;;4.57;1.92;;;21.30;99.90;;;;;;4973246;28;20389;-78
2021/06/09 07:49:02;;;;;;;3.80;1.65;;;21.20;99.90;;;;;;4974480;28;20526;-78
2021/06/09 07:51:30;;;;;;;4.32;1.63;;;21.00;99.90;;;;;;4989705;28;20026;-78
2021/06/09 07:53:59;;;;;;;1.95;1.52;;;21.20;99.90;;;;;;4989380;28;20471;-78
2021/06/09 07:56:33;;;;;;;1.98;1.20;;;21.30;99.90;;;;;;4974377;28;20037;-78
2021/06/09 07:59:02;;;;;;;1.15;1.00;;;21.50;99.90;;;;;;4974471;28;20398;-78
2021/06/09 08:01:27;;;;;;;1.52;1.25;;;21.60;99.90;;;;;;4974564;28;20399;-78
2021/06/09 08:03:54;;;;;;;0.88;0.85;;;21.70;99.90;;;;;;4974043;28;20031;-79
2021/06/09 08:06:20;;;;;;;3.60;0.95;;;21.90;99.90;;;;;;4989360;28;20126;-78
2021/06/09 08:08:46;;;;;;;5.10;0.80;;;22.00;99.90;;;;;;4974447;28;20102;-78
2021/06/09 08:11:13;;;;;;;5.35;1.10;;;22.20;99.90;;;;;;4974436;28;20543;-78
2021/06/09 08:13:41;;;;;;;2.60;1.13;;;22.40;99.90;;;;;;4973779;28;20029;-78
2021/06/09 08:16:16;;;;;;;1.60;1.13;;;22.50;99.90;;;;;;4974607;28;20050;-78
2021/06/09 08:18:43;;;;;;;1.52;0.95;;;22.60;99.90;;;;;;4988829;28;20030;-78
2021/06/09 08:21:16;;;;;;;3.03;1.10;;;22.60;99.90;;;;;;4989124;28;20495;-78
2021/06/09 08:23:44;;;;;;;2.47;1.08;;;22.80;99.90;;;;;;4973659;28;20031;-78
2021/06/09 08:26:12;;;;;;;4.35;1.30;;;22.90;99.90;;;;;;4973923;28;20050;-79
2021/06/09 08:28:40;;;;;;;0.60;0.60;;;22.70;99.90;;;;;;4973999;28;20019;-78
2021/06/09 08:31:07;;;;;;;1.90;1.10;;;22.60;99.90;;;;;;4972747;28;20033;-78
2021/06/09 08:33:35;;;;;;;1.20;1.10;;;22.80;99.90;;;;;;4973683;28;20074;-79
2021/06/09 08:36:05;;;;;;;2.03;0.85;;;22.80;99.90;;;;;;4973634;28;20443;-78
2021/06/09 08:38:31;;;;;;;1.13;0.85;;;22.80;98.90;;;;;;4973342;28;20487;-79
2021/06/09 08:40:57;;;;;;;1.67;0.63;;;22.90;99.90;;;;;;4973722;28;20455;-78
2021/06/09 08:43:22;;;;;;;1.20;0.80;;;23.20;99.90;;;;;;4971256;28;20057;-79
2021/06/09 08:45:48;;;;;;;1.25;0.80;;;23.10;95.20;;;;;;4973588;28;20027;-78
2021/06/09 08:48:15;;;;;;;0.98;0.80;;;23.00;93.80;;;;;;4973466;28;20027;-78
2021/06/09 08:50:42;;;;;;;0.95;0.80;;;23.20;99.90;;;;;;4972423;28;20034;-80
2021/06/09 08:53:10;;;;;;;0.88;0.80;;;23.30;96.70;;;;;;4973481;28;20033;-79
2021/06/09 08:55:36;;;;;;;2.15;0.80;;;23.30;99.90;;;;;;4972079;28;20027;-79
2021/06/09 08:58:11;;;;;;;1.98;1.10;;;23.20;97.90;;;;;;4988490;28;20483;-79
2021/06/09 09:00:38;;;;;;;0.85;0.50;;;23.60;99.90;;;;;;4973472;28;20618;-79
2021/06/09 09:03:04;;;;;;;0.93;0.65;;;23.70;94.60;;;;;;4973226;28;20438;-78
2021/06/09 09:05:30;;;;;;;1.40;0.75;;;23.80;91.90;;;;;;4971380;28;20027;-78
2021/06/09 09:07:59;;;;;;;1.13;0.68;;;24.00;98.10;;;;;;4973295;28;20178;-78
2021/06/09 09:10:26;;;;;;;0.60;0.50;;;24.00;96.60;;;;;;4972044;28;20019;-78
2021/06/09 09:12:52;;;;;;;2.08;0.75;;;24.00;87.90;;;;;;4973401;28;20403;-78
2021/06/09 09:15:18;;;;;;;1.52;0.75;;;23.80;86.60;;;;;;4973079;28;20567;-78
2021/06/09 09:17:59;;;;;;;0.80;0.75;;;23.80;95.10;;;;;;4964377;28;20037;-79
2021/06/09 09:20:33;;;;;;;2.97;0.73;;;23.70;97.30;;;;;;4968672;28;20031;-78
2021/06/09 09:23:01;;;;;;;1.58;0.70;;;23.90;93.30;;;;;;4969066;28;20023;-78
2021/06/09 09:25:31;;;;;;;1.27;0.80;;;23.90;87.00;;;;;;4969357;28;20169;-79
2021/06/09 09:28:05;;;;;;;1.55;0.77;;;24.00;92.30;;;;;;4969056;28;20019;-78
2021/06/09 09:30:33;;;;;;;1.50;0.70;;;23.90;90.00;;;;;;4969701;28;20023;-78
2021/06/09 09:33:19;;;;;;;2.88;0.95;;;23.60;90.60;;;;;;4975934;28;20109;-78
2021/06/09 09:35:46;;;;;;;0.80;0.70;;;23.70;88.70;;;;;;4968464;28;20027;-78
2021/06/09 09:38:31;;;;;;;2.33;1.02;;;23.70;92.30;;;;;;4968591;28;20126;-78
2021/06/09 09:41:17;;;;;;;0.85;0.65;;;23.70;91.70;;;;;;4967232;28;20042;-78
2021/06/09 09:43:56;;;;;;;1.75;0.98;;;23.80;90.60;;;;;;4968644;28;20026;-79
2021/06/09 09:46:44;;;;;;;1.85;0.80;;;23.80;90.40;;;;;;4969589;28;20065;-79
2021/06/09 09:49:20;;;;;;;2.63;1.00;;;23.90;96.60;;;;;;4960512;28;20034;-78
2021/06/09 09:51:50;;;;;;;1.55;0.63;;;24.30;93.00;;;;;;4970244;28;20038;-79
2021/06/09 09:54:26;;;;;;;1.02;0.60;;;24.20;92.20;;;;;;4980618;28;20050;-78
2021/06/09 09:56:51;;;;;;;2.88;0.70;;;24.60;79.20;;;;;;4968965;28;20106;-78
2021/06/09 09:59:18;;;;;;;3.20;0.82;;;24.40;76.60;;;;;;4972666;28;20102;-79
2021/06/09 10:01:50;;;;;;;1.50;0.90;;;24.50;77.40;;;;;;4970668;28;20380;-78
2021/06/09 10:04:22;;;;;;;0.50;0.50;;;24.40;84.50;;;;;;4972156;28;20050;-79
2021/06/09 10:06:50;;;;;;;0.88;0.60;;;24.40;82.50;;;;;;4972914;28;20073;-79
2021/06/09 10:09:36;;;;;;;0.57;0.50;;;24.50;79.90;;;;;;4972404;28;20049;-78
2021/06/09 10:12:06;;;;;;;1.42;0.50;;;24.40;75.20;;;;;;4972267;28;20093;-78
2021/06/09 10:14:37;;;;;;;0.95;0.50;;;24.50;73.60;;;;;;4987989;28;20054;-79
2021/06/09 10:17:07;;;;;;;1.52;0.60;;;24.50;69.80;;;;;;4972369;28;20033;-79
2021/06/09 10:19:36;;;;;;;3.30;0.60;;;24.40;76.70;;;;;;4972201;28;20019;-79
2021/06/09 10:22:06;;;;;;;1.00;0.80;;;24.70;76.50;;;;;;4972088;28;20391;-78
2021/06/09 10:24:42;;;;;;;1.10;0.80;;;24.60;77.10;;;;;;4970946;28;20101;-79
2021/06/09 10:27:08;;;;;;;4.18;0.93;;;24.50;73.50;;;;;;4972447;28;20054;-79
2021/06/09 10:29:35;;;;;;;1.67;1.00;;;24.60;74.60;;;;;;4971172;28;20050;-79
2021/06/09 10:32:09;;;;;;;1.02;0.52;;;24.30;76.50;;;;;;4972426;28;20031;-79
2021/06/09 10:34:36;;;;;;;0.57;0.55;;;24.50;81.20;;;;;;4989785;28;20022;-79
2021/06/09 10:37:05;;;;;;;2.28;0.57;;;24.60;69.60;;;;;;4970420;28;20045;-79
2021/06/09 10:39:34;;;;;;;1.23;0.50;;;24.70;75.80;;;;;;4973430;28;20053;-78
2021/06/09 10:42:08;;;;;;;1.40;0.90;;;24.70;74.10;;;;;;4972160;28;20535;-78
2021/06/09 10:44:40;;;;;;;4.18;0.90;;;24.70;86.30;;;;;;4971918;28;20135;-79
2021/06/09 10:47:18;;;;;;;1.15;0.50;;;24.90;74.10;;;;;;4971060;28;20023;-79
2021/06/09 10:49:44;;;;;;;2.33;0.70;;;24.80;68.00;;;;;;4975929;28;20387;-79
2021/06/09 10:52:11;;;;;;;0.70;0.60;;;24.50;69.60;;;;;;4974865;28;20399;-80
2021/06/09 10:54:37;;;;;;;2.20;0.80;;;24.50;78.70;;;;;;4975950;28;20615;-79
2021/06/09 10:57:06;;;;;;;1.10;0.60;;;24.40;73.70;;;;;;4975890;28;20031;-80
2021/06/09 10:59:32;;;;;;;0.88;0.70;;;24.60;77.20;;;;;;4974439;28;20026;-79
2021/06/09 11:02:10;;;;;;;1.33;0.98;;;25.00;81.50;;;;;;4975270;28;20511;-80
2021/06/09 11:04:43;;;;;;;0.57;0.47;;;25.20;85.20;;;;;;4990434;28;20098;-80
2021/06/09 11:07:33;;;;;;;1.13;0.77;;;25.10;72.20;;;;;;4975296;28;20097;-80
2021/06/09 11:10:10;;;;;;;2.30;0.73;;;25.20;79.50;;;;;;4975403;28;20054;-80
2021/06/09 11:12:43;;;;;;;2.15;0.75;;;25.40;84.70;;;;;;4975277;28;20039;-80
2021/06/09 11:15:12;;;;;;;5.38;2.30;;;25.40;78.20;;;;;;4975125;28;20114;-80
2021/06/09 11:17:37;;;;;;;1.88;1.38;;;25.50;75.20;;;;;;4975073;28;20465;-80
2021/06/09 11:20:10;;;;;;;2.38;1.08;;;25.20;77.10;;;;;;4974052;28;20031;-79
2021/06/09 11:22:43;;;;;;;3.40;0.80;;;25.20;78.80;;;;;;4975243;28;20022;-79
2021/06/09 11:25:23;;;;;;;2.15;1.15;;;25.10;83.60;;;;;;4974921;28;20027;-80
2021/06/09 11:28:13;;;;;;;1.67;1.10;;;25.40;77.60;;;;;;4973596;28;20037;-80
2021/06/09 11:30:45;;;;;;;2.33;1.10;;;25.50;76.10;;;;;;4987327;28;20057;-80
2021/06/09 11:33:27;;;;;;;3.13;1.88;;;25.50;79.10;;;;;;4975184;28;20050;-80
2021/06/09 11:35:56;;;;;;;2.88;2.05;;;25.50;77.60;;;;;;4989797;28;20027;-80
2021/06/09 11:38:26;;;;;;;2.78;1.23;;;25.70;89.40;;;;;;4989621;28;20113;-79
2021/06/09 11:40:56;;;;;;;5.63;1.48;;;25.90;76.20;;;;;;4975028;28;20027;-80
2021/06/09 11:43:23;;;;;;;7.88;1.73;;;25.70;77.70;;;;;;4974753;28;20037;-80
2021/06/09 11:45:54;;;;;;;6.82;2.72;;;25.20;76.00;;;;;;4974611;28;20514;-79
2021/06/09 11:48:24;;;;;;;4.47;2.30;;;24.70;79.90;;;;;;4974868;28;20034;-79
2021/06/09 11:50:52;;;;;;;3.97;2.38;;;24.60;79.40;;;;;;4989566;28;20496;-80
2021/06/09 11:53:39;;;;;;;4.85;1.80;;;24.90;88.70;;;;;;4973683;28;20031;-79
2021/06/09 11:56:14;;;;;;;4.00;2.03;;;25.10;78.90;;;;;;4974909;28;20054;-80
2021/06/09 11:58:40;;;;;;;5.70;2.72;;;25.40;79.20;;;;;;4974752;28;20086;-79
2021/06/09 12:01:11;;;;;;;5.88;2.35;;;25.40;77.80;;;;;;4975072;28;20031;-79
2021/06/09 12:03:39;;;;;;;6.03;1.88;;;25.50;81.20;;;;;;4989809;28;20030;-79
2021/06/09 12:06:14;;;;;;;5.80;2.97;;;25.80;80.20;;;;;;4974431;28;20037;-79
2021/06/09 12:08:40;;;;;;;2.53;2.10;;;25.70;77.70;;;;;;4974251;28;20030;-79
2021/06/09 12:11:06;;;;;;;5.25;2.80;;;25.70;85.00;;;;;;4974088;28;20076;-79
2021/06/09 12:13:32;;;;;;;7.30;2.58;;;25.80;79.70;;;;;;4973727;28;20143;-79
2021/06/09 12:16:17;;;;;;;3.78;2.17;;;26.00;84.00;;;;;;4973031;28;20155;-79
2021/06/09 12:18:47;;;;;;;5.88;1.85;;;26.40;76.30;;;;;;4973838;28;20038;-79
2021/06/09 12:21:18;;;;;;;5.43;2.38;;;26.50;72.40;;;;;;4974022;28;20065;-79
2021/06/09 12:23:54;;;;;;;3.30;2.05;;;26.30;73.40;;;;;;4988743;28;20031;-79
2021/06/09 12:26:20;;;;;;;5.25;2.15;;;26.50;78.50;;;;;;4972822;28;20034;-80
2021/06/09 12:28:46;;;;;;;3.10;1.90;;;26.60;80.60;;;;;;4972676;28;20391;-79
2021/06/09 12:31:11;;;;;;;2.70;1.60;;;26.70;80.90;;;;;;4972793;28;20023;-80
2021/06/09 12:33:40;;;;;;;8.38;2.15;;;26.60;73.30;;;;;;4972363;28;20031;-79
2021/06/09 12:36:13;;;;;;;5.63;2.60;;;26.70;77.70;;;;;;4972363;28;20031;-80
2021/06/09 12:38:40;;;;;;;;;;;27.00;80.90;;;;;;4974219;28;20102;-79
2021/06/09 12:41:10;;;;;;;3.50;1.67;;;27.20;74.00;;;;;;4972565;28;19906;-80
2021/06/09 12:43:36;;;;;;;3.50;2.20;;;27.00;76.80;;;;;;4973673;28;20065;-80
2021/06/09 12:46:02;;;;;;;4.25;2.20;;;26.90;73.80;;;;;;4988314;28;20041;-80
2021/06/09 12:48:27;;;;;;;6.78;2.80;;;26.70;71.40;;;;;;4972226;28;20106;-79
2021/06/09 12:50:57;;;;;;;3.10;2.47;;;26.60;73.00;;;;;;4972245;28;20027;-80
2021/06/09 12:53:28;;;;;;;4.18;2.10;;;26.70;74.60;;;;;;4988644;28;20039;-80
2021/06/09 12:56:06;;;;;;;15.95;1.45;;;26.50;70.70;;;;;;4972219;28;20035;-79